CheckWX is a tool to help pilots better visualize weather data.  It is not intended as a substitute for an official pre-flight weather briefing.

19:56:56 UTC

LIRE TAF
Pratica Di Mare Airport
Pomezia, Italy
TAF LIRE 251700Z 2518/2603 28006KT CAVOK

Jun-25@
18:00 UTC

Jun-25 @ 18:00 UTC

Jun-26@
03:00 UTC

Jun-26 @ 03:00 UTC

TAF LIRE 251700Z 2518/2603 28006KT CAVOK
Wind
  • 280° at 6 KTS
Conditions
No significant weather
Cloud Levels
  • No significant clouds